Aviation Digital Data Service (ADDS)

Output produced by METARs form (0547 UTC 24 May 2022)
found at http://aviationweather.gov/metar/data/
 
METAR text: EYKA 240520Z 13004KT 100V170 CAVOK 13/05 Q1014
Conditions at: EYKA (KAUNAS , LT) observed 0520 UTC 24 May 2022
Temperature: 13.0°C (55°F)
Dewpoint: 5.0°C (41°F) [RH = 58%]
Pressure (altimeter): 29.94 inches Hg (1014.0 mb)
Winds: from the SE (130 degrees) at 5 MPH (4 knots; 2.1 m/s)
Visibility: 6 or more miles (10+ km)
Ceiling: ceiling and visibility are OK
Clouds: unknown
Weather: no significant weather observed at this time

METAR text: EYKA 240450Z 11003KT 070V150 CAVOK 12/06 Q1013
Conditions at: EYKA (KAUNAS , LT) observed 0450 UTC 24 May 2022
Temperature: 12.0°C (54°F)
Dewpoint: 6.0°C (43°F) [RH = 67%]
Pressure (altimeter): 29.91 inches Hg (1013.0 mb)
Winds: from the ESE (110 degrees) at 3 MPH (3 knots; 1.5 m/s)
Visibility: 6 or more miles (10+ km)
Ceiling: ceiling and visibility are OK
Clouds: unknown
Weather: no significant weather observed at this time

METAR text: EYKA 240420Z 07003KT CAVOK 10/05 Q1013
Conditions at: EYKA (KAUNAS , LT) observed 0420 UTC 24 May 2022
Temperature: 10.0°C (50°F)
Dewpoint: 5.0°C (41°F) [RH = 71%]
Pressure (altimeter): 29.91 inches Hg (1013.0 mb)
Winds: from the ENE (70 degrees) at 3 MPH (3 knots; 1.5 m/s)
Visibility: 6 or more miles (10+ km)
Ceiling: ceiling and visibility are OK
Clouds: unknown
Weather: no significant weather observed at this time

METAR text: EYKA 240350Z 08003KT CAVOK 07/04 Q1013
Conditions at: EYKA (KAUNAS , LT) observed 0350 UTC 24 May 2022
Temperature: 7.0°C (45°F)
Dewpoint: 4.0°C (39°F) [RH = 81%]
Pressure (altimeter): 29.91 inches Hg (1013.0 mb)
Winds: from the E (80 degrees) at 3 MPH (3 knots; 1.5 m/s)
Visibility: 6 or more miles (10+ km)
Ceiling: ceiling and visibility are OK
Clouds: unknown
Weather: no significant weather observed at this time

Forecast for: EYKA (KAUNAS , LT)
Text: TAF EYKA 240500Z 2406/2506 VRB05KT CAVOK
Forecast period: 0600 to 0800 UTC 24 May 2022
Forecast type: FROM: standard forecast or significant change
Winds: variable direction winds at 6 MPH (5 knots; 2.6 m/s)
Visibility: 6 or more miles (10+ km)
Ceiling: unknown
Clouds: missing
Weather: NSW  (no significant weather)
Text: BECMG 2408/2409 16015KT
Forecast period: 0800 UTC 24 May 2022 to 0600 UTC 25 May 2022
Forecast type: BECOMING: Conditions expected to become as follows by 0900 UTC 24 May 2022
Winds: from the SSE (160 degrees) at 17 MPH (15 knots; 7.7 m/s)
Visibility: 6 or more miles (10+ km)
Ceiling: unknown
Clouds: missing
Weather: NSW  (no significant weather)